Time;durP1;ratioP1;P1;durP2;ratioP2;P2;SDS_P1;SDS_P2;PMS_P1;PMS_P2;Temp;Humidity;BMP_temperature;BMP_pressure;BME280_temperature;BME280_humidity;BME280_pressure;Samples;Min_cycle;Max_cycle;Signal;HPM_P1;HPM_P2
2023/12/21 00:00:41;;;;;;;;;;;;;;;;;;2195731;59;2455;-22
2023/12/21 00:03:11;;;;;;;;;;;;;;;;;;2181327;67;1924;-22
2023/12/21 00:05:42;;;;;;;;;;;;;;;;;;2181852;59;2523;-22
2023/12/21 00:08:12;;;;;;;;;;;;;;;;;;2183362;59;2093;-22
2023/12/21 00:10:42;;;;;;;;;;;;;;;;;;2180987;59;1857;-22
2023/12/21 00:13:12;;;;;;;;;;;;;;;;;;2177315;59;2016;-22
2023/12/21 00:15:43;;;;;;;;;;;;;;;;;;2185981;59;2091;-22
2023/12/21 00:18:14;;;;;;;;;;;;;;;;;;2182543;59;1920;-22
2023/12/21 00:20:45;;;;;;;;;;;;;;;;;;2180674;59;2268;-22
2023/12/21 00:23:17;;;;;;;;;;;;;;;;;;2182725;59;2266;-22
2023/12/21 00:25:48;;;;;;;;;;;;;;;;;;2181879;59;2458;-22
2023/12/21 00:28:20;;;;;;;;;;;;;;;;;;2184565;59;2239;-23
2023/12/21 00:30:52;;;;;;;;;;;;;;;;;;2180735;59;3027;-23
2023/12/21 00:33:23;;;;;;;;;;;;;;;;;;2182857;59;3286;-22
2023/12/21 00:35:54;;;;;;;;;;;;;;;;;;2182851;59;2416;-22
2023/12/21 00:38:24;;;;;;;;;;;;;;;;;;2181625;59;1907;-22
2023/12/21 00:40:56;;;;;;;;;;;;;;;;;;2180896;59;2435;-22
2023/12/21 00:43:26;;;;;;;;;;;;;;;;;;2183080;67;2071;-23
2023/12/21 00:45:56;;;;;;;;;;;;;;;;;;2181092;59;2687;-22
2023/12/21 00:48:27;;;;;;;;;;;;;;;;;;2182262;59;1871;-23
2023/12/21 00:50:58;;;;;;;;;;;;;;;;;;2183884;59;2419;-23
2023/12/21 00:53:30;;;;;;;;;;;;;;;;;;2178495;60;2330;-23
2023/12/21 00:56:01;;;;;;;;;;;;;;;;;;2185019;59;2334;-23
2023/12/21 00:58:31;;;;;;;;;;;;;;;;;;2178642;67;2415;-23
2023/12/21 01:01:01;;;;;;;;;;;;;;;;;;2181913;59;2728;-23
2023/12/21 01:03:32;;;;;;;;;;;;;;;;;;2182072;59;2588;-23
2023/12/21 01:06:03;;;;;;;;;;;;;;;;;;2183752;67;2992;-23
2023/12/21 01:08:34;;;;;;;;;;;;;;;;;;2178501;67;2349;-23
2023/12/21 01:11:09;;;;;;;;;;;;;;;;;;2181764;59;3014;-23
2023/12/21 01:13:47;;;;;;;;;;;;;;;;;;2185310;59;1982;-23
2023/12/21 01:16:20;;;;;;;;;;;;;;;;;;2183185;59;2452;-23
2023/12/21 01:18:51;;;;;;;;;;;;;;;;;;2184860;67;2435;-23
2023/12/21 01:21:22;;;;;;;;;;;;;;;;;;2182773;59;1948;-23
2023/12/21 01:23:52;;;;;;;;;;;;;;;;;;2180020;59;2878;-23
2023/12/21 01:26:23;;;;;;;;;;;;;;;;;;2181722;59;2001;-23
2023/12/21 01:28:54;;;;;;;;;;;;;;;;;;2182161;67;2127;-23
2023/12/21 01:31:25;;;;;;;;;;;;;;;;;;2182759;59;2176;-24
2023/12/21 01:33:55;;;;;;;;;;;;;;;;;;2181909;59;2587;-23
2023/12/21 01:36:28;;;;;;;;;;;;;;;;;;2181996;59;1991;-23
2023/12/21 01:38:58;;;;;;;;;;;;;;;;;;2181130;59;1792;-23
2023/12/21 01:41:29;;;;;;;;;;;;;;;;;;2181792;59;2157;-23
2023/12/21 01:43:59;;;;;;;;;;;;;;;;;;2179991;67;2425;-23
2023/12/21 01:46:29;;;;;;;;;;;;;;;;;;2184073;59;2372;-23
2023/12/21 01:49:00;;;;;;;;;;;;;;;;;;2181163;59;1929;-23
2023/12/21 01:51:31;;;;;;;;;;;;;;;;;;2182291;59;2500;-23
2023/12/21 01:54:04;;;;;;;;;;;;;;;;;;2182173;67;1845;-23
2023/12/21 01:56:34;;;;;;;;;;;;;;;;;;2181003;59;3746;-23
2023/12/21 01:59:05;;;;;;;;;;;;;;;;;;2181052;59;3384;-23
2023/12/21 02:01:35;;;;;;;;;;;;;;;;;;2181564;59;2465;-23
2023/12/21 02:04:05;;;;;;;;;;;;;;;;;;2179691;59;1942;-23
2023/12/21 02:06:36;;;;;;;;;;;;;;;;;;2185983;67;1762;-23
2023/12/21 02:09:06;;;;;;;;;;;;;;;;;;2182423;59;2213;-23
2023/12/21 02:11:37;;;;;;;;;;;;;;;;;;2182104;59;2117;-23
2023/12/21 02:14:07;;;;;;;;;;;;;;;;;;2181483;59;2342;-23
2023/12/21 02:16:41;;;;;;;;;;;;;;;;;;2181571;59;2365;-23
2023/12/21 02:19:12;;;;;;;;;;;;;;;;;;2181420;67;1759;-23
2023/12/21 02:21:44;;;;;;;;;;;;;;;;;;2181719;59;2126;-23
2023/12/21 02:24:15;;;;;;;;;;;;;;;;;;2181562;59;2450;-23
2023/12/21 02:26:45;;;;;;;;;;;;;;;;;;2179815;59;1981;-23
2023/12/21 02:29:15;;;;;;;;;;;;;;;;;;2181200;67;1891;-23
2023/12/21 02:31:45;;;;;;;;;;;;;;;;;;2181162;59;3087;-22
2023/12/21 02:34:16;;;;;;;;;;;;;;;;;;2182284;59;2201;-23
2023/12/21 02:36:46;;;;;;;;;;;;;;;;;;2180701;67;2021;-22
2023/12/21 02:39:19;;;;;;;;;;;;;;;;;;2181767;59;2397;-23
2023/12/21 02:41:52;;;;;;;;;;;;;;;;;;2181562;59;1930;-23
2023/12/21 02:44:25;;;;;;;;;;;;;;;;;;2180487;67;2574;-23
2023/12/21 02:46:57;;;;;;;;;;;;;;;;;;2180604;67;2838;-23
2023/12/21 02:49:27;;;;;;;;;;;;;;;;;;2182167;67;2887;-23
2023/12/21 02:51:57;;;;;;;;;;;;;;;;;;2182069;59;1906;-23
2023/12/21 02:54:28;;;;;;;;;;;;;;;;;;2182299;67;2607;-23
2023/12/21 02:56:58;;;;;;;;;;;;;;;;;;2176431;60;2046;-23
2023/12/21 02:59:28;;;;;;;;;;;;;;;;;;2184506;59;2038;-23
2023/12/21 03:01:59;;;;;;;;;;;;;;;;;;2180988;67;2267;-23
2023/12/21 03:04:29;;;;;;;;;;;;;;;;;;2182401;67;2714;-23
2023/12/21 03:06:59;;;;;;;;;;;;;;;;;;2181503;59;1875;-23
2023/12/21 03:09:29;;;;;;;;;;;;;;;;;;2182225;67;1830;-23
2023/12/21 03:12:00;;;;;;;;;;;;;;;;;;2178225;60;2222;-22
2023/12/21 03:14:30;;;;;;;;;;;;;;;;;;2182376;59;1974;-22
2023/12/21 03:17:00;;;;;;;;;;;;;;;;;;2181569;67;2057;-22
2023/12/21 03:19:31;;;;;;;;;;;;;;;;;;2181862;67;2022;-23
2023/12/21 03:22:01;;;;;;;;;;;;;;;;;;2184024;67;2238;-23
2023/12/21 03:24:31;;;;;;;;;;;;;;;;;;2181735;67;2378;-23
2023/12/21 03:27:03;;;;;;;;;;;;;;;;;;2181216;67;1984;-23
2023/12/21 03:29:33;;;;;;;;;;;;;;;;;;2180955;67;3062;-23
2023/12/21 03:32:04;;;;;;;;;;;;;;;;;;2181002;59;2688;-23
2023/12/21 03:34:34;;;;;;;;;;;;;;;;;;2180794;59;1779;-23
2023/12/21 03:37:04;;;;;;;;;;;;;;;;;;2181189;59;1988;-23
2023/12/21 03:39:35;;;;;;;;;;;;;;;;;;2181823;59;2098;-23
2023/12/21 03:42:06;;;;;;;;;;;;;;;;;;2177105;60;2115;-23
2023/12/21 03:44:36;;;;;;;;;;;;;;;;;;2180812;67;2153;-23
2023/12/21 03:47:06;;;;;;;;;;;;;;;;;;2179971;67;1926;-23
2023/12/21 03:49:37;;;;;;;;;;;;;;;;;;2181254;59;1981;-23
2023/12/21 03:52:08;;;;;;;;;;;;;;;;;;2180501;59;2425;-23
2023/12/21 03:54:38;;;;;;;;;;;;;;;;;;2183412;59;2836;-23
2023/12/21 03:57:08;;;;;;;;;;;;;;;;;;2180864;67;2151;-23
2023/12/21 03:59:40;;;;;;;;;;;;;;;;;;2182127;67;2366;-23
2023/12/21 04:02:11;;;;;;;;;;;;;;;;;;2181543;59;2576;-23
2023/12/21 04:04:41;;;;;;;;;;;;;;;;;;2182129;67;2087;-22
2023/12/21 04:07:11;;;;;;;;;;;;;;;;;;2182929;67;2544;-23
2023/12/21 04:09:42;;;;;;;;;;;;;;;;;;2180677;59;2589;-23
2023/12/21 04:12:12;;;;;;;;;;;;;;;;;;2180319;59;2102;-23
2023/12/21 04:14:42;;;;;;;;;;;;;;;;;;2183526;59;2919;-23
2023/12/21 04:17:16;;;;;;;;;;;;;;;;;;2180958;59;1851;-23
2023/12/21 04:19:46;;;;;;;;;;;;;;;;;;2184042;59;2513;-23
2023/12/21 04:22:17;;;;;;;;;;;;;;;;;;2180322;59;2250;-23
2023/12/21 04:24:47;;;;;;;;;;;;;;;;;;2181009;59;2044;-23
2023/12/21 04:27:17;;;;;;;;;;;;;;;;;;2180665;59;2623;-22
2023/12/21 04:29:48;;;;;;;;;;;;;;;;;;2181017;59;2048;-23
2023/12/21 04:32:19;;;;;;;;;;;;;;;;;;2181452;59;2964;-23
2023/12/21 04:34:49;;;;;;;;;;;;;;;;;;2181774;59;2154;-22
2023/12/21 04:37:20;;;;;;;;;;;;;;;;;;2179889;59;2390;-23
2023/12/21 04:39:50;;;;;;;;;;;;;;;;;;2182406;67;2096;-23
2023/12/21 04:42:20;;;;;;;;;;;;;;;;;;2182453;60;2363;-23
2023/12/21 04:44:51;;;;;;;;;;;;;;;;;;2181942;67;1868;-23
2023/12/21 04:47:21;;;;;;;;;;;;;;;;;;2182061;67;2359;-23
2023/12/21 04:49:52;;;;;;;;;;;;;;;;;;2182248;67;2030;-23
2023/12/21 04:52:22;;;;;;;;;;;;;;;;;;2185833;59;2240;-23
2023/12/21 04:54:52;;;;;;;;;;;;;;;;;;2182590;67;2602;-23
2023/12/21 04:57:23;;;;;;;;;;;;;;;;;;2182969;59;2312;-23
2023/12/21 04:59:53;;;;;;;;;;;;;;;;;;2184079;59;2062;-23
2023/12/21 05:02:24;;;;;;;;;;;;;;;;;;2182305;59;2038;-23
2023/12/21 05:04:54;;;;;;;;;;;;;;;;;;2180074;59;1814;-23
2023/12/21 05:07:24;;;;;;;;;;;;;;;;;;2181946;59;1838;-23
2023/12/21 05:10:00;;;;;;;;;;;;;;;;;;2183473;59;2467;-23
2023/12/21 05:12:30;;;;;;;;;;;;;;;;;;2184509;59;1862;-23
2023/12/21 05:15:00;;;;;;;;;;;;;;;;;;2181757;59;2023;-23
2023/12/21 05:17:30;;;;;;;;;;;;;;;;;;2184948;67;2110;-23
2023/12/21 05:20:04;;;;;;;;;;;;;;;;;;2181959;59;2606;-22
2023/12/21 05:22:35;;;;;;;;;;;;;;;;;;2184568;59;1999;-23
2023/12/21 05:25:05;;;;;;;;;;;;;;;;;;2181849;67;2074;-23
2023/12/21 05:27:35;;;;;;;;;;;;;;;;;;2182791;59;1929;-23
2023/12/21 05:30:06;;;;;;;;;;;;;;;;;;2181460;67;1876;-23
2023/12/21 05:32:36;;;;;;;;;;;;;;;;;;2182139;59;2482;-23
2023/12/21 05:35:06;;;;;;;;;;;;;;;;;;2181993;59;2119;-23
2023/12/21 05:37:37;;;;;;;;;;;;;;;;;;2182106;59;1989;-23
2023/12/21 05:40:07;;;;;;;;;;;;;;;;;;2179552;67;2286;-23
2023/12/21 05:42:37;;;;;;;;;;;;;;;;;;2181540;59;2009;-23
2023/12/21 05:45:08;;;;;;;;;;;;;;;;;;2180950;67;3245;-22
2023/12/21 05:47:38;;;;;;;;;;;;;;;;;;2181808;59;2459;-23
2023/12/21 05:50:09;;;;;;;;;;;;;;;;;;2180062;59;1887;-23
2023/12/21 05:52:40;;;;;;;;;;;;;;;;;;2180422;59;1907;-23
2023/12/21 05:55:15;;;;;;;;;;;;;;;;;;2180181;59;1958;-23
2023/12/21 05:57:45;;;;;;;;;;;;;;;;;;2180212;60;2513;-23
2023/12/21 06:00:15;;;;;;;;;;;;;;;;;;2180213;59;2909;-22
2023/12/21 06:02:46;;;;;;;;;;;;;;;;;;2180660;59;2923;-23
2023/12/21 06:05:17;;;;;;;;;;;;;;;;;;2181167;59;1855;-23
2023/12/21 06:07:47;;;;;;;;;;;;;;;;;;2181961;67;1859;-23
2023/12/21 06:10:19;;;;;;;;;;;;;;;;;;2180312;59;2712;-23
2023/12/21 06:12:49;;;;;;;;;;;;;;;;;;2181578;59;2019;-23
2023/12/21 06:15:19;;;;;;;;;;;;;;;;;;2179774;59;2244;-23
2023/12/21 06:17:49;;;;;;;;;;;;;;;;;;2180409;59;2332;-22
2023/12/21 06:20:20;;;;;;;;;;;;;;;;;;2182561;64;1827;-22
2023/12/21 06:22:50;;;;;;;;;;;;;;;;;;2180778;59;2402;-23
2023/12/21 06:25:20;;;;;;;;;;;;;;;;;;2179261;59;2343;-22
2023/12/21 06:27:50;;;;;;;;;;;;;;;;;;2180449;59;1892;-23
2023/12/21 06:30:21;;;;;;;;;;;;;;;;;;2181026;67;2484;-24
2023/12/21 06:32:53;;;;;;;;;;;;;;;;;;2179818;59;2571;-22
2023/12/21 06:35:23;;;;;;;;;;;;;;;;;;2181399;67;1727;-22
2023/12/21 06:37:53;;;;;;;;;;;;;;;;;;2184902;59;2566;-23
2023/12/21 06:40:24;;;;;;;;;;;;;;;;;;2183985;59;2473;-23
2023/12/21 06:42:54;;;;;;;;;;;;;;;;;;2183105;59;2673;-23
2023/12/21 06:45:25;;;;;;;;;;;;;;;;;;2184053;59;2241;-23
2023/12/21 06:47:57;;;;;;;;;;;;;;;;;;2181896;59;3188;-23
2023/12/21 06:50:28;;;;;;;;;;;;;;;;;;2182199;59;2451;-23
2023/12/21 06:52:59;;;;;;;;;;;;;;;;;;2183462;59;2154;-23
2023/12/21 06:55:32;;;;;;;;;;;;;;;;;;2186270;59;2410;-23
2023/12/21 06:58:05;;;;;;;;;;;;;;;;;;2181894;59;3128;-23
2023/12/21 07:00:36;;;;;;;;;;;;;;;;;;2184476;59;2353;-23
2023/12/21 07:03:06;;;;;;;;;;;;;;;;;;2180662;59;2680;-24
2023/12/21 07:05:36;;;;;;;;;;;;;;;;;;2182815;59;1791;-23
2023/12/21 07:08:06;;;;;;;;;;;;;;;;;;2179505;67;2083;-23
2023/12/21 07:10:37;;;;;;;;;;;;;;;;;;2182405;59;2007;-23
2023/12/21 07:13:07;;;;;;;;;;;;;;;;;;2183552;59;2817;-23
2023/12/21 07:15:38;;;;;;;;;;;;;;;;;;2181820;59;2251;-23
2023/12/21 07:18:08;;;;;;;;;;;;;;;;;;2180460;67;1931;-23
2023/12/21 07:20:38;;;;;;;;;;;;;;;;;;2181846;59;2026;-23
2023/12/21 07:23:09;;;;;;;;;;;;;;;;;;2181020;67;2133;-23
2023/12/21 07:25:41;;;;;;;;;;;;;;;;;;2181631;67;1551;-23
2023/12/21 07:28:17;;;;;;;;;;;;;;;;;;2180820;59;1679;-23
2023/12/21 07:30:47;;;;;;;;;;;;;;;;;;2183597;67;1997;-22
2023/12/21 07:33:18;;;;;;;;;;;;;;;;;;2180981;59;2749;-23
2023/12/21 07:35:48;;;;;;;;;;;;;;;;;;2182940;59;2384;-23
2023/12/21 07:38:18;;;;;;;;;;;;;;;;;;2182288;59;2394;-23
2023/12/21 07:40:51;;;;;;;;;;;;;;;;;;2182581;59;2749;-22
2023/12/21 07:43:21;;;;;;;;;;;;;;;;;;2182119;67;2690;-22
2023/12/21 07:45:52;;;;;;;;;;;;;;;;;;2181944;59;2716;-23
2023/12/21 07:48:22;;;;;;;;;;;;;;;;;;2180839;59;1842;-23
2023/12/21 07:50:56;;;;;;;;;;;;;;;;;;2181933;59;2815;-22
2023/12/21 07:53:26;;;;;;;;;;;;;;;;;;2182003;59;2786;-22
2023/12/21 07:55:56;;;;;;;;;;;;;;;;;;2180843;59;3364;-22
2023/12/21 07:58:26;;;;;;;;;;;;;;;;;;2181357;59;2518;-23
2023/12/21 08:00:57;;;;;;;;;;;;;;;;;;2181029;67;1750;-23
2023/12/21 08:03:27;;;;;;;;;;;;;;;;;;2180915;59;2561;-23
2023/12/21 08:05:57;;;;;;;;;;;;;;;;;;2182198;59;2505;-23
2023/12/21 08:08:27;;;;;;;;;;;;;;;;;;2182059;67;2768;-23
2023/12/21 08:11:01;;;;;;;;;;;;;;;;;;2182369;59;2800;-23
2023/12/21 08:13:31;;;;;;;;;;;;;;;;;;2181849;59;2608;-23
2023/12/21 08:16:01;;;;;;;;;;;;;;;;;;2181267;59;2487;-23
2023/12/21 08:18:32;;;;;;;;;;;;;;;;;;2180624;59;2453;-23
2023/12/21 08:21:02;;;;;;;;;;;;;;;;;;2182477;67;2567;-23
2023/12/21 08:23:32;;;;;;;;;;;;;;;;;;2184095;59;2497;-23
2023/12/21 08:26:03;;;;;;;;;;;;;;;;;;2182558;67;2647;-23
2023/12/21 08:28:34;;;;;;;;;;;;;;;;;;2179357;67;2578;-23
2023/12/21 08:31:04;;;;;;;;;;;;;;;;;;2182872;59;3340;-23
2023/12/21 08:33:35;;;;;;;;;;;;;;;;;;2183105;67;2653;-23
2023/12/21 08:36:05;;;;;;;;;;;;;;;;;;2182623;59;2575;-23
2023/12/21 08:38:35;;;;;;;;;;;;;;;;;;2183387;59;1954;-23
2023/12/21 08:41:06;;;;;;;;;;;;;;;;;;2181400;59;2485;-23
2023/12/21 08:43:36;;;;;;;;;;;;;;;;;;2185525;67;2651;-23
2023/12/21 08:46:06;;;;;;;;;;;;;;;;;;2180415;60;2687;-23
2023/12/21 08:48:37;;;;;;;;;;;;;;;;;;2183627;67;2526;-23
2023/12/21 08:51:07;;;;;;;;;;;;;;;;;;2181942;59;2377;-23
2023/12/21 08:53:38;;;;;;;;;;;;;;;;;;2182331;59;2367;-23
2023/12/21 08:56:08;;;;;;;;;;;;;;;;;;2182271;59;2808;-23
2023/12/21 08:58:38;;;;;;;;;;;;;;;;;;2183209;59;1800;-23
2023/12/21 09:01:09;;;;;;;;;;;;;;;;;;2182613;60;2551;-23
2023/12/21 09:03:39;;;;;;;;;;;;;;;;;;2186200;67;2949;-23
2023/12/21 09:06:09;;;;;;;;;;;;;;;;;;2183691;59;1763;-23
2023/12/21 09:08:40;;;;;;;;;;;;;;;;;;2186081;59;2334;-23
2023/12/21 09:11:13;;;;;;;;;;;;;;;;;;2174409;59;2546;-23
2023/12/21 09:13:43;;;;;;;;;;;;;;;;;;2182316;59;2787;-23
2023/12/21 09:16:15;;;;;;;;;;;;;;;;;;2181381;59;2618;-23
2023/12/21 09:18:46;;;;;;;;;;;;;;;;;;2183947;59;2478;-23
2023/12/21 09:21:19;;;;;;;;;;;;;;;;;;2181545;59;2481;-23
2023/12/21 09:23:51;;;;;;;;;;;;;;;;;;2183154;59;2745;-23
2023/12/21 09:26:21;;;;;;;;;;;;;;;;;;2180105;67;2223;-29
2023/12/21 09:28:51;;;;;;;;;;;;;;;;;;2183429;59;2474;-23
2023/12/21 09:31:21;;;;;;;;;;;;;;;;;;2183647;59;2122;-23
2023/12/21 09:33:52;;;;;;;;;;;;;;;;;;2183304;59;2628;-23
2023/12/21 09:36:23;;;;;;;;;;;;;;;;;;2183385;59;1953;-23
2023/12/21 09:38:53;;;;;;;;;;;;;;;;;;2184978;59;2282;-23
2023/12/21 09:41:23;;;;;;;;;;;;;;;;;;2180886;59;1882;-23
2023/12/21 09:43:57;;;;;;;;;;;;;;;;;;2187121;59;1997;-23
2023/12/21 09:46:28;;;;;;;;;;;;;;;;;;2177062;59;2469;-23
2023/12/21 09:48:58;;;;;;;;;;;;;;;;;;2185322;59;1810;-23
2023/12/21 09:51:29;;;;;;;;;;;;;;;;;;2182498;59;2438;-23
2023/12/21 09:54:02;;;;;;;;;;;;;;;;;;2184586;59;3017;-23
2023/12/21 09:56:33;;;;;;;;;;;;;;;;;;2178512;59;2175;-23
2023/12/21 09:59:04;;;;;;;;;;;;;;;;;;2183163;60;1766;-23
2023/12/21 10:01:35;;;;;;;;;;;;;;;;;;2182180;59;2791;-23
2023/12/21 10:04:07;;;;;;;;;;;;;;;;;;2183561;59;1999;-23
2023/12/21 10:06:38;;;;;;;;;;;;;;;;;;2182539;59;1754;-23
2023/12/21 10:09:12;;;;;;;;;;;;;;;;;;2182961;59;1824;-23
2023/12/21 10:11:43;;;;;;;;;;;;;;;;;;2183294;59;1892;-23
2023/12/21 10:14:19;;;;;;;;;;;;;;;;;;2185480;59;1817;-23
2023/12/21 10:16:49;;;;;;;;;;;;;;;;;;2183126;59;2010;-23
2023/12/21 10:19:20;;;;;;;;;;;;;;;;;;2184380;59;2470;-23
2023/12/21 10:21:50;;;;;;;;;;;;;;;;;;2181429;59;2159;-23
2023/12/21 10:24:22;;;;;;;;;;;;;;;;;;2183231;59;2793;-23
2023/12/21 10:26:52;;;;;;;;;;;;;;;;;;2184004;59;2822;-23
2023/12/21 10:29:22;;;;;;;;;;;;;;;;;;2184881;59;1935;-23
2023/12/21 10:31:53;;;;;;;;;;;;;;;;;;2183705;59;2293;-23
2023/12/21 10:34:23;;;;;;;;;;;;;;;;;;2182787;59;2338;-23
2023/12/21 10:36:53;;;;;;;;;;;;;;;;;;2183656;59;1647;-23
2023/12/21 10:39:24;;;;;;;;;;;;;;;;;;2184172;59;2298;-23
2023/12/21 10:41:56;;;;;;;;;;;;;;;;;;2184242;59;2003;-23
2023/12/21 10:44:27;;;;;;;;;;;;;;;;;;2181244;67;1466;-23
2023/12/21 10:46:58;;;;;;;;;;;;;;;;;;2183035;59;1816;-23
2023/12/21 10:49:28;;;;;;;;;;;;;;;;;;2182219;59;2430;-23
2023/12/21 10:52:00;;;;;;;;;;;;;;;;;;2184235;59;1710;-23
2023/12/21 10:54:32;;;;;;;;;;;;;;;;;;2184094;59;2182;-23
2023/12/21 10:57:04;;;;;;;;;;;;;;;;;;2183244;59;2725;-23
2023/12/21 10:59:35;;;;;;;;;;;;;;;;;;2182682;59;3105;-23
2023/12/21 11:02:10;;;;;;;;;;;;;;;;;;2175671;59;2525;-23
2023/12/21 11:04:42;;;;;;;;;;;;;;;;;;2184152;67;2325;-23
2023/12/21 11:07:14;;;;;;;;;;;;;;;;;;2182428;59;1980;-23
2023/12/21 11:09:45;;;;;;;;;;;;;;;;;;2183288;59;2473;-23
2023/12/21 11:12:15;;;;;;;;;;;;;;;;;;2182244;59;2767;-23
2023/12/21 11:14:47;;;;;;;;;;;;;;;;;;2177873;59;2521;-23
2023/12/21 11:17:18;;;;;;;;;;;;;;;;;;2185311;59;2460;-23
2023/12/21 11:19:48;;;;;;;;;;;;;;;;;;2185532;59;2774;-23
2023/12/21 11:22:19;;;;;;;;;;;;;;;;;;2181701;59;2108;-23
2023/12/21 11:24:49;;;;;;;;;;;;;;;;;;2185893;59;1924;-23
2023/12/21 11:27:20;;;;;;;;;;;;;;;;;;2181103;59;1857;-23
2023/12/21 11:29:51;;;;;;;;;;;;;;;;;;2186198;59;2328;-23
2023/12/21 11:32:24;;;;;;;;;;;;;;;;;;2185297;59;2283;-23
2023/12/21 11:34:54;;;;;;;;;;;;;;;;;;2186966;67;1456;-23
2023/12/21 11:37:28;;;;;;;;;;;;;;;;;;2184010;59;1767;-23
2023/12/21 11:39:59;;;;;;;;;;;;;;;;;;2182703;59;2763;-23
2023/12/21 11:42:36;;;;;;;;;;;;;;;;;;2181574;67;2237;-23
2023/12/21 11:45:09;;;;;;;;;;;;;;;;;;2183656;59;2039;-23
2023/12/21 11:47:44;;;;;;;;;;;;;;;;;;2183363;59;1785;-23
2023/12/21 11:50:17;;;;;;;;;;;;;;;;;;2183869;59;2902;-23
2023/12/21 11:52:51;;;;;;;;;;;;;;;;;;2187691;59;1806;-23
2023/12/21 11:55:25;;;;;;;;;;;;;;;;;;2185635;59;2469;-23
2023/12/21 11:58:08;;;;;;;;;;;;;;;;;;2182093;59;2284;-23
2023/12/21 12:00:49;;;;;;;;;;;;;;;;;;2181233;59;2144;-23
2023/12/21 12:03:20;;;;;;;;;;;;;;;;;;2179709;59;2120;-23
2023/12/21 12:05:53;;;;;;;;;;;;;;;;;;2184686;59;2236;-23
2023/12/21 12:08:24;;;;;;;;;;;;;;;;;;2181690;59;2392;-23
2023/12/21 12:10:55;;;;;;;;;;;;;;;;;;2183303;59;1581;-23
2023/12/21 12:13:25;;;;;;;;;;;;;;;;;;2184936;59;2221;-23
2023/12/21 12:15:55;;;;;;;;;;;;;;;;;;2192594;54;2331;-20
2023/12/21 12:18:26;;;;;;;;;;;;;;;;;;2192230;59;1695;-20
2023/12/21 12:21:00;;;;;;;;;;;;;;;;;;2192476;59;1811;-20
2023/12/21 12:23:30;;;;;;;;;;;;;;;;;;2193597;59;2693;-20
2023/12/21 12:26:02;;;;;;;;;;;;;;;;;;2185926;59;1802;-20
2023/12/21 12:28:34;;;;;;;;;;;;;;;;;;2188530;59;1992;-20
2023/12/21 12:31:05;;;;;;;;;;;;;;;;;;2193265;59;2471;-20
2023/12/21 12:33:37;;;;;;;;;;;;;;;;;;2189963;59;2169;-20
2023/12/21 12:36:07;;;;;;;;;;;;;;;;;;2191669;67;1790;-20
2023/12/21 12:38:38;;;;;;;;;;;;;;;;;;2187228;67;1857;-20
2023/12/21 12:41:08;;;;;;;;;;;;;;;;;;2188426;59;1993;-20
2023/12/21 12:43:39;;;;;;;;;;;;;;;;;;2189565;59;3189;-20
2023/12/21 12:46:10;;;;;;;;;;;;;;;;;;2188687;59;2100;-20
2023/12/21 12:48:40;;;;;;;;;;;;;;;;;;2190993;59;1979;-20
2023/12/21 12:51:11;;;;;;;;;;;;;;;;;;2188876;59;2186;-20
2023/12/21 12:53:42;;;;;;;;;;;;;;;;;;2187047;67;2074;-21
2023/12/21 12:56:12;;;;;;;;;;;;;;;;;;2190260;59;2049;-20
2023/12/21 12:58:43;;;;;;;;;;;;;;;;;;2191119;59;1811;-20
2023/12/21 13:01:13;;;;;;;;;;;;;;;;;;2188277;60;1788;-20
2023/12/21 13:03:43;;;;;;;;;;;;;;;;;;2190218;67;2228;-20
2023/12/21 13:06:14;;;;;;;;;;;;;;;;;;2191073;67;2298;-20
2023/12/21 13:08:47;;;;;;;;;;;;;;;;;;2191146;67;2680;-20
2023/12/21 13:11:17;;;;;;;;;;;;;;;;;;2192029;59;2464;-20
2023/12/21 13:13:48;;;;;;;;;;;;;;;;;;2190941;59;1884;-20
2023/12/21 13:16:19;;;;;;;;;;;;;;;;;;2191812;59;2258;-20
2023/12/21 13:18:49;;;;;;;;;;;;;;;;;;2191511;59;3831;-20
2023/12/21 13:21:19;;;;;;;;;;;;;;;;;;2191401;59;1984;-20
2023/12/21 13:23:50;;;;;;;;;;;;;;;;;;2187774;67;1936;-20
2023/12/21 13:26:20;;;;;;;;;;;;;;;;;;2191281;59;2372;-20
2023/12/21 13:28:54;;;;;;;;;;;;;;;;;;2187989;67;2470;-20
2023/12/21 13:31:25;;;;;;;;;;;;;;;;;;2188808;59;2363;-20
2023/12/21 13:33:56;;;;;;;;;;;;;;;;;;2190742;59;2491;-20
2023/12/21 13:36:27;;;;;;;;;;;;;;;;;;2188799;59;2305;-20
2023/12/21 13:38:58;;;;;;;;;;;;;;;;;;2190811;59;2127;-19
2023/12/21 13:41:28;;;;;;;;;;;;;;;;;;2189786;59;2591;-19
2023/12/21 13:43:59;;;;;;;;;;;;;;;;;;2188358;59;3082;-19
2023/12/21 13:46:29;;;;;;;;;;;;;;;;;;2182852;59;3341;-19
2023/12/21 13:49:00;;;;;;;;;;;;;;;;;;2189706;59;2720;-19
2023/12/21 13:51:30;;;;;;;;;;;;;;;;;;2186739;67;1880;-19
2023/12/21 13:54:00;;;;;;;;;;;;;;;;;;2188722;59;1840;-19
2023/12/21 13:56:31;;;;;;;;;;;;;;;;;;2186519;59;2392;-19
2023/12/21 13:59:01;;;;;;;;;;;;;;;;;;2202838;59;3312;-19
2023/12/21 14:01:31;;;;;;;;;;;;;;;;;;2189902;59;2603;-19
2023/12/21 14:04:03;;;;;;;;;;;;;;;;;;2191101;67;1932;-20
2023/12/21 14:06:34;;;;;;;;;;;;;;;;;;2189309;59;2651;-20
2023/12/21 14:09:04;;;;;;;;;;;;;;;;;;2190702;59;2702;-20
2023/12/21 14:11:34;;;;;;;;;;;;;;;;;;2189444;59;3012;-20
2023/12/21 14:14:05;;;;;;;;;;;;;;;;;;2186826;59;2871;-21
2023/12/21 14:16:37;;;;;;;;;;;;;;;;;;2187340;59;1978;-20
2023/12/21 14:19:08;;;;;;;;;;;;;;;;;;2192467;67;2166;-20
2023/12/21 14:21:38;;;;;;;;;;;;;;;;;;2191184;67;2024;-21
2023/12/21 14:24:08;;;;;;;;;;;;;;;;;;2190716;59;2926;-19
2023/12/21 14:26:39;;;;;;;;;;;;;;;;;;2190300;67;2172;-19
2023/12/21 14:29:09;;;;;;;;;;;;;;;;;;2191850;59;2352;-19
2023/12/21 14:31:40;;;;;;;;;;;;;;;;;;2190856;59;2292;-18
2023/12/21 14:34:10;;;;;;;;;;;;;;;;;;2187009;60;2633;-19
2023/12/21 14:36:41;;;;;;;;;;;;;;;;;;2186906;67;2423;-19
2023/12/21 14:39:11;;;;;;;;;;;;;;;;;;2192192;60;1685;-19
2023/12/21 14:41:44;;;;;;;;;;;;;;;;;;2187536;67;1806;-19
2023/12/21 14:44:14;;;;;;;;;;;;;;;;;;2191461;67;2904;-19
2023/12/21 14:46:44;;;;;;;;;;;;;;;;;;2189930;59;2892;-19
2023/12/21 14:49:15;;;;;;;;;;;;;;;;;;2192670;67;1861;-19
2023/12/21 14:51:45;;;;;;;;;;;;;;;;;;2186866;67;1989;-19
2023/12/21 14:54:15;;;;;;;;;;;;;;;;;;2191446;59;1942;-19
2023/12/21 14:56:45;;;;;;;;;;;;;;;;;;2190690;59;1988;-19
2023/12/21 14:59:16;;;;;;;;;;;;;;;;;;2187385;59;2422;-19
2023/12/21 15:01:48;;;;;;;;;;;;;;;;;;2190558;59;1788;-19
2023/12/21 15:04:18;;;;;;;;;;;;;;;;;;2191598;67;2240;-19
2023/12/21 15:06:50;;;;;;;;;;;;;;;;;;2190721;67;2137;-19
2023/12/21 15:09:21;;;;;;;;;;;;;;;;;;2192089;59;2677;-19
2023/12/21 15:11:51;;;;;;;;;;;;;;;;;;2188484;59;2897;-18
2023/12/21 15:14:21;;;;;;;;;;;;;;;;;;2191753;59;2719;-19
2023/12/21 15:16:52;;;;;;;;;;;;;;;;;;2189419;59;1901;-19
2023/12/21 15:19:23;;;;;;;;;;;;;;;;;;2189168;67;1813;-19
2023/12/21 15:21:53;;;;;;;;;;;;;;;;;;2190593;67;2415;-18
2023/12/21 15:24:24;;;;;;;;;;;;;;;;;;2192157;67;2240;-19
2023/12/21 15:26:54;;;;;;;;;;;;;;;;;;2190543;59;2039;-19
2023/12/21 15:29:26;;;;;;;;;;;;;;;;;;2191783;67;1994;-19
2023/12/21 15:31:57;;;;;;;;;;;;;;;;;;2191279;59;2365;-19
2023/12/21 15:34:29;;;;;;;;;;;;;;;;;;2191582;67;2668;-19
2023/12/21 15:36:59;;;;;;;;;;;;;;;;;;2192054;67;2063;-19
2023/12/21 15:39:29;;;;;;;;;;;;;;;;;;2187888;67;2098;-19
2023/12/21 15:41:59;;;;;;;;;;;;;;;;;;2189244;67;1918;-19
2023/12/21 15:44:30;;;;;;;;;;;;;;;;;;2191359;67;3029;-19
2023/12/21 15:47:00;;;;;;;;;;;;;;;;;;2190719;59;3160;-19
2023/12/21 15:49:30;;;;;;;;;;;;;;;;;;2190516;67;2325;-19
2023/12/21 15:52:01;;;;;;;;;;;;;;;;;;2188801;67;2337;-19
2023/12/21 15:54:31;;;;;;;;;;;;;;;;;;2190877;67;2406;-19
2023/12/21 15:57:02;;;;;;;;;;;;;;;;;;2192027;60;3286;-19
2023/12/21 15:59:34;;;;;;;;;;;;;;;;;;2190396;59;2767;-19
2023/12/21 16:02:05;;;;;;;;;;;;;;;;;;2191462;59;2391;-19
2023/12/21 16:04:35;;;;;;;;;;;;;;;;;;2187229;59;1910;-19
2023/12/21 16:07:05;;;;;;;;;;;;;;;;;;2191621;59;2085;-19
2023/12/21 16:09:36;;;;;;;;;;;;;;;;;;2185473;59;2437;-19
2023/12/21 16:12:06;;;;;;;;;;;;;;;;;;2187494;59;1897;-19
2023/12/21 16:14:36;;;;;;;;;;;;;;;;;;2189120;59;2696;-19
2023/12/21 16:17:07;;;;;;;;;;;;;;;;;;2189911;67;2523;-19
2023/12/21 16:19:37;;;;;;;;;;;;;;;;;;2189456;67;2569;-18
2023/12/21 16:22:07;;;;;;;;;;;;;;;;;;2190988;59;2143;-19
2023/12/21 16:24:38;;;;;;;;;;;;;;;;;;2185241;67;2070;-19
2023/12/21 16:27:09;;;;;;;;;;;;;;;;;;2191309;59;2517;-19
2023/12/21 16:29:40;;;;;;;;;;;;;;;;;;2188573;67;1971;-19
2023/12/21 16:32:11;;;;;;;;;;;;;;;;;;2191787;59;2382;-19
2023/12/21 16:34:45;;;;;;;;;;;;;;;;;;2189751;67;2084;-19
2023/12/21 16:37:16;;;;;;;;;;;;;;;;;;2189842;59;2386;-19
2023/12/21 16:39:46;;;;;;;;;;;;;;;;;;2189301;67;2757;-19
2023/12/21 16:42:16;;;;;;;;;;;;;;;;;;2187233;67;1939;-19
2023/12/21 16:44:47;;;;;;;;;;;;;;;;;;2189499;60;2031;-19
2023/12/21 16:47:17;;;;;;;;;;;;;;;;;;2190201;59;3370;-19
2023/12/21 16:49:48;;;;;;;;;;;;;;;;;;2186869;67;3104;-19
2023/12/21 16:52:18;;;;;;;;;;;;;;;;;;2186976;67;2313;-19
2023/12/21 16:54:48;;;;;;;;;;;;;;;;;;2190338;67;1927;-18
2023/12/21 16:57:20;;;;;;;;;;;;;;;;;;2188047;67;2065;-19
2023/12/21 16:59:50;;;;;;;;;;;;;;;;;;2185363;67;2153;-18
2023/12/21 17:02:21;;;;;;;;;;;;;;;;;;2190779;67;2070;-19
2023/12/21 17:04:53;;;;;;;;;;;;;;;;;;2189221;67;2505;-19
2023/12/21 17:07:23;;;;;;;;;;;;;;;;;;2191171;67;2429;-19
2023/12/21 17:09:54;;;;;;;;;;;;;;;;;;2183361;59;3293;-18
2023/12/21 17:12:25;;;;;;;;;;;;;;;;;;2191434;59;1811;-20
2023/12/21 17:14:55;;;;;;;;;;;;;;;;;;2191253;59;1982;-20
2023/12/21 17:17:26;;;;;;;;;;;;;;;;;;2192024;67;1809;-18
2023/12/21 17:19:57;;;;;;;;;;;;;;;;;;2190286;67;2513;-18
2023/12/21 17:22:27;;;;;;;;;;;;;;;;;;2190933;67;2652;-18
2023/12/21 17:24:58;;;;;;;;;;;;;;;;;;2190400;67;2126;-19
2023/12/21 17:27:28;;;;;;;;;;;;;;;;;;2192053;67;2176;-18